createdAt,value
2022-08-16T00:01:24.526Z,99881.50
2022-08-16T00:03:53.144Z,99873.84
2022-08-16T00:06:20.824Z,99873.38
2022-08-16T00:08:48.187Z,99874.78
2022-08-16T00:11:16.762Z,99879.00
2022-08-16T00:13:53.465Z,99876.56
2022-08-16T00:17:06.162Z,99874.38
2022-08-16T00:19:41.695Z,99873.19
2022-08-16T00:22:13.751Z,99874.31
2022-08-16T00:24:46.804Z,99880.09
2022-08-16T00:27:15.033Z,99885.16
2022-08-16T00:29:42.308Z,99881.19
2022-08-16T00:32:11.104Z,99884.47
2022-08-16T00:34:43.195Z,99881.69
2022-08-16T00:37:20.477Z,99884.78
2022-08-16T00:39:56.862Z,99879.00
2022-08-16T00:42:31.961Z,99874.69
2022-08-16T00:45:25.470Z,99886.94
2022-08-16T00:47:55.099Z,99887.94
2022-08-16T00:50:36.102Z,99888.19
2022-08-16T00:53:06.918Z,99879.72
2022-08-16T00:55:38.285Z,99883.72
2022-08-16T00:58:13.263Z,99876.28
2022-08-16T01:00:45.512Z,99887.47
2022-08-16T01:03:30.390Z,99881.91
2022-08-16T01:05:59.343Z,99885.94
2022-08-16T01:08:35.464Z,99890.41
2022-08-16T01:11:05.492Z,99893.19
2022-08-16T01:13:36.397Z,99890.78
2022-08-16T01:16:10.165Z,99895.97
2022-08-16T01:18:47.463Z,99900.00
2022-08-16T01:22:47.049Z,99901.56
2022-08-16T01:24:57.544Z,99899.38
2022-08-16T01:27:36.941Z,99903.44
2022-08-16T01:30:28.920Z,99904.50
2022-08-16T01:33:14.042Z,99900.31
2022-08-16T01:35:54.211Z,99899.00
2022-08-16T01:38:35.219Z,99901.84
2022-08-16T01:41:29.712Z,99900.47
2022-08-16T01:44:00.937Z,99891.09
2022-08-16T01:46:46.642Z,99896.56
2022-08-16T01:49:20.068Z,99902.63
2022-08-16T01:51:57.931Z,99891.03
2022-08-16T01:54:30.638Z,99897.56
2022-08-16T01:56:59.552Z,99897.84
2022-08-16T01:59:27.116Z,99892.59
2022-08-16T02:02:00.176Z,99894.94
2022-08-16T02:04:40.007Z,99900.13
2022-08-16T02:07:18.721Z,99904.47
2022-08-16T02:09:58.357Z,99902.53
2022-08-16T02:12:49.482Z,99902.47
2022-08-16T02:15:25.293Z,99897.31
2022-08-16T02:17:58.343Z,99894.56
2022-08-16T02:20:28.437Z,99896.69
2022-08-16T02:23:05.571Z,99898.66
2022-08-16T02:25:51.237Z,99894.59
2022-08-16T02:28:23.718Z,99889.69
2022-08-16T02:30:52.465Z,99887.59
2022-08-16T02:33:24.367Z,99884.78
2022-08-16T02:36:14.559Z,99892.00
2022-08-16T02:38:57.194Z,99891.22
2022-08-16T02:41:24.059Z,99889.19
2022-08-16T02:43:53.468Z,99892.72
2022-08-16T02:46:20.938Z,99893.44
2022-08-16T02:49:01.978Z,99887.09
2022-08-16T02:51:29.042Z,99883.50
2022-08-16T02:53:58.528Z,99890.69
2022-08-16T02:56:25.971Z,99887.09
2022-08-16T02:58:59.550Z,99880.75
2022-08-16T03:01:36.532Z,99889.53
2022-08-16T03:04:39.223Z,99880.19
2022-08-16T03:06:56.374Z,99875.19
2022-08-16T03:09:25.294Z,99874.06
2022-08-16T03:11:56.141Z,99879.72
2022-08-16T03:14:24.493Z,99866.88
2022-08-16T03:16:59.411Z,99875.38
2022-08-16T03:19:47.876Z,99873.88
2022-08-16T03:22:28.856Z,99868.84
2022-08-16T03:25:04.466Z,99865.03
2022-08-16T03:27:38.945Z,99866.31
2022-08-16T03:30:16.488Z,99870.22
2022-08-16T03:32:47.237Z,99870.47
2022-08-16T03:35:18.554Z,99870.66
2022-08-16T03:38:01.803Z,99864.59
2022-08-16T03:40:33.835Z,99872.78
2022-08-16T03:43:20.237Z,99867.50
2022-08-16T03:45:49.461Z,99871.25
2022-08-16T03:48:21.316Z,99866.41
2022-08-16T03:51:08.549Z,99863.66
2022-08-16T03:53:38.355Z,99870.78
2022-08-16T03:56:07.631Z,99870.97
2022-08-16T03:58:45.766Z,99869.31
2022-08-16T04:01:15.506Z,99866.31
2022-08-16T04:03:43.248Z,99873.78
2022-08-16T04:06:11.219Z,99869.31
2022-08-16T04:08:39.525Z,99870.94
2022-08-16T04:11:07.216Z,99868.84
2022-08-16T04:14:00.192Z,99871.13
2022-08-16T04:16:27.720Z,99879.34
2022-08-16T04:19:02.372Z,99884.41
2022-08-16T04:21:32.941Z,99879.63
2022-08-16T04:24:00.835Z,99882.06
2022-08-16T04:26:30.801Z,99889.69
2022-08-16T04:29:14.801Z,99882.72
2022-08-16T04:31:56.220Z,99890.03
2022-08-16T04:34:28.679Z,99893.31
2022-08-16T04:36:57.977Z,99897.38
2022-08-16T04:39:36.527Z,99894.56
2022-08-16T04:42:15.523Z,99904.50
2022-08-16T04:44:53.892Z,99906.38
2022-08-16T04:47:31.438Z,99905.78
2022-08-16T04:49:59.915Z,99900.16
2022-08-16T04:52:35.147Z,99899.59
2022-08-16T04:55:15.210Z,99901.63
2022-08-16T04:57:43.790Z,99904.03
2022-08-16T05:00:32.271Z,99907.22
2022-08-16T05:03:11.431Z,99914.50
2022-08-16T05:05:45.382Z,99914.94
2022-08-16T05:08:30.544Z,99919.44
2022-08-16T05:11:03.649Z,99917.53
2022-08-16T05:13:41.471Z,99913.97
2022-08-16T05:16:27.523Z,99914.47
2022-08-16T05:19:00.735Z,99920.16
2022-08-16T05:21:38.345Z,99923.03
2022-08-16T05:24:07.707Z,99931.88
2022-08-16T05:26:42.960Z,99933.47
2022-08-16T05:29:15.261Z,99935.53
2022-08-16T05:31:47.971Z,99941.22
2022-08-16T05:34:21.409Z,99939.34
2022-08-16T05:36:51.178Z,99940.97
2022-08-16T05:39:20.483Z,99942.84
2022-08-16T05:41:48.977Z,99939.34
2022-08-16T05:44:23.102Z,99946.03
2022-08-16T05:46:56.004Z,99949.09
2022-08-16T05:49:24.357Z,99948.25
2022-08-16T05:51:54.820Z,99949.63
2022-08-16T05:54:24.989Z,99958.69
2022-08-16T05:56:54.276Z,99950.78
2022-08-16T05:59:24.150Z,99948.63
2022-08-16T06:01:52.231Z,99962.91
2022-08-16T06:04:34.826Z,99957.56
2022-08-16T06:07:09.019Z,99954.72
2022-08-16T06:09:51.394Z,99951.50
2022-08-16T06:12:26.744Z,99964.56
2022-08-16T06:15:04.494Z,99966.13
2022-08-16T06:17:43.126Z,99964.84
2022-08-16T06:20:23.432Z,99958.47
2022-08-16T06:22:59.007Z,99966.75
2022-08-16T06:25:35.890Z,99966.13
2022-08-16T06:28:09.537Z,99971.75
2022-08-16T06:30:43.548Z,99973.13
2022-08-16T06:33:22.170Z,99971.34
2022-08-16T06:35:55.287Z,99963.50
2022-08-16T06:38:33.305Z,99969.59
2022-08-16T06:41:06.570Z,99961.34
2022-08-16T06:43:41.712Z,99964.88
2022-08-16T06:46:31.559Z,99963.25
2022-08-16T06:48:59.332Z,99963.22
2022-08-16T06:51:48.375Z,99966.69
2022-08-16T06:54:14.269Z,99966.59
2022-08-16T06:56:42.408Z,99965.03
2022-08-16T06:59:10.298Z,99964.97
2022-08-16T07:01:46.330Z,99966.09
2022-08-16T07:04:31.661Z,99968.53
2022-08-16T07:07:01.721Z,99965.41
2022-08-16T07:09:30.620Z,99979.94
2022-08-16T07:12:03.371Z,99975.34
2022-08-16T07:14:31.717Z,99966.25
2022-08-16T07:16:59.830Z,99969.13
2022-08-16T07:20:04.116Z,99976.38
2022-08-16T07:22:37.117Z,99976.78
2022-08-16T07:25:11.797Z,99974.41
2022-08-16T07:27:40.319Z,99978.84
2022-08-16T07:30:46.122Z,99972.63
2022-08-16T07:33:00.336Z,99981.56
2022-08-16T07:35:27.510Z,99972.94
2022-08-16T07:37:54.769Z,99971.94
2022-08-16T07:40:36.946Z,99980.00
2022-08-16T07:43:09.674Z,99977.63
2022-08-16T07:45:36.812Z,99970.53
2022-08-16T07:48:11.221Z,99976.78
2022-08-16T07:50:56.563Z,99980.28
2022-08-16T07:53:31.712Z,99978.31
2022-08-16T07:56:00.505Z,99977.03
2022-08-16T07:58:33.789Z,99984.97
2022-08-16T08:01:11.053Z,99987.81
2022-08-16T08:03:48.212Z,99988.66
2022-08-16T08:06:22.756Z,99978.84
2022-08-16T08:08:57.577Z,99980.59
2022-08-16T08:11:28.817Z,99973.03
2022-08-16T08:14:03.794Z,99974.34
2022-08-16T08:16:32.950Z,99971.16
2022-08-16T08:19:02.845Z,99981.00
2022-08-16T08:21:56.633Z,99981.84
2022-08-16T08:24:21.360Z,99998.94
2022-08-16T08:26:50.147Z,99999.75
2022-08-16T08:29:23.064Z,100001.97
2022-08-16T08:31:52.985Z,100007.22
2022-08-16T08:34:21.122Z,100004.78
2022-08-16T08:36:54.039Z,100010.78
2022-08-16T08:39:21.750Z,100002.63
2022-08-16T08:41:49.426Z,100001.44
2022-08-16T08:44:28.648Z,99996.34
2022-08-16T08:47:04.741Z,100004.56
2022-08-16T08:49:46.828Z,100002.81
2022-08-16T08:52:35.137Z,99993.66
2022-08-16T08:55:11.223Z,100002.53
2022-08-16T08:57:46.817Z,99996.03
2022-08-16T09:00:18.422Z,100004.56
2022-08-16T09:02:52.073Z,99996.84
2022-08-16T09:05:22.936Z,99996.59
2022-08-16T09:08:05.871Z,99991.84
2022-08-16T09:10:33.758Z,100009.25
2022-08-16T09:13:01.419Z,100001.50
2022-08-16T09:15:32.556Z,100003.00
2022-08-16T09:18:26.635Z,100005.47
2022-08-16T09:21:00.163Z,100001.47
2022-08-16T09:23:36.305Z,100001.19
2022-08-16T09:26:44.142Z,99996.34
2022-08-16T09:29:15.187Z,99997.97
2022-08-16T09:31:42.152Z,100008.69
2022-08-16T09:34:10.496Z,99995.50
2022-08-16T09:36:45.950Z,99994.28
2022-08-16T09:39:15.784Z,100000.16
2022-08-16T09:41:54.272Z,99992.56
2022-08-16T09:45:10.597Z,99996.06
2022-08-16T09:47:13.565Z,99988.72
2022-08-16T09:49:41.346Z,99982.06
2022-08-16T09:52:10.315Z,99967.75
2022-08-16T09:54:44.443Z,99974.63
2022-08-16T09:57:12.471Z,99973.22
2022-08-16T09:59:41.994Z,99963.88
2022-08-16T10:02:23.006Z,99960.34
2022-08-16T10:04:56.705Z,99952.00
2022-08-16T10:07:38.339Z,99961.44
2022-08-16T10:10:31.076Z,99968.94
2022-08-16T10:13:16.673Z,99985.06
2022-08-16T10:15:55.780Z,99986.19
2022-08-16T10:18:54.110Z,99975.84
2022-08-16T10:21:17.943Z,99981.41
2022-08-16T10:23:46.275Z,99970.66
2022-08-16T10:27:18.069Z,99961.97
2022-08-16T10:29:01.747Z,99957.28
2022-08-16T10:31:43.650Z,99957.97
2022-08-16T10:34:30.785Z,99956.88
2022-08-16T10:37:00.138Z,99949.25
2022-08-16T10:39:40.783Z,99945.13
2022-08-16T10:42:13.629Z,99941.00
2022-08-16T10:44:42.289Z,99941.63
2022-08-16T10:47:10.246Z,99945.97
2022-08-16T10:49:39.079Z,99941.16
2022-08-16T10:52:17.986Z,99933.69
2022-08-16T10:57:33.329Z,99937.66
2022-08-16T11:00:22.417Z,99940.06
2022-08-16T11:02:57.739Z,99940.91
2022-08-16T11:05:59.168Z,99950.34
2022-08-16T11:08:17.376Z,99937.97
2022-08-16T11:11:04.856Z,99940.03
2022-08-16T11:19:12.632Z,99947.56
2022-08-16T11:24:40.039Z,99947.88
2022-08-16T11:27:19.751Z,99960.91
2022-08-16T11:29:52.009Z,99955.69
2022-08-16T11:32:20.295Z,99955.78
2022-08-16T11:35:11.002Z,99957.50
2022-08-16T11:38:24.078Z,99953.59
2022-08-16T11:40:32.418Z,99953.63
2022-08-16T11:43:01.498Z,99959.28
2022-08-16T11:45:33.478Z,99949.84
2022-08-16T11:48:05.126Z,99943.88
2022-08-16T11:50:33.668Z,99949.47
2022-08-16T11:53:05.660Z,99951.00
2022-08-16T11:55:38.209Z,99959.25
2022-08-16T11:58:08.313Z,99949.22
2022-08-16T12:00:51.922Z,99949.47
2022-08-16T12:03:31.446Z,99948.78
2022-08-16T12:06:11.204Z,99937.13
2022-08-16T12:08:57.379Z,99943.03
2022-08-16T12:11:28.116Z,99943.03
2022-08-16T12:14:04.695Z,99946.00
2022-08-16T12:16:34.440Z,99940.78
2022-08-16T12:19:04.635Z,99944.13
2022-08-16T12:21:36.059Z,99934.19
2022-08-16T12:24:20.770Z,99932.16
2022-08-16T12:26:48.497Z,99936.75
2022-08-16T12:29:16.476Z,99933.28
2022-08-16T12:32:00.839Z,99944.09
2022-08-16T12:34:30.277Z,99939.41
2022-08-16T12:36:58.625Z,99943.91
2022-08-16T12:39:29.075Z,99942.28
2022-08-16T12:41:56.713Z,99944.56
2022-08-16T12:44:26.311Z,99943.16
2022-08-16T12:47:17.094Z,99933.31
2022-08-16T12:49:44.068Z,99939.25
2022-08-16T12:52:33.656Z,99934.59
2022-08-16T12:55:00.707Z,99927.97
2022-08-16T12:57:36.324Z,99928.81
2022-08-16T13:00:26.499Z,99924.16
2022-08-16T13:02:54.505Z,99920.44
2022-08-16T13:05:22.262Z,99920.38
2022-08-16T13:07:51.320Z,99916.50
2022-08-16T13:10:37.262Z,99914.84
2022-08-16T13:13:06.919Z,99911.88
2022-08-16T13:15:51.517Z,99910.03
2022-08-16T13:18:32.540Z,99912.16
2022-08-16T13:21:00.729Z,99921.47
2022-08-16T13:23:27.705Z,99917.22
2022-08-16T13:25:57.259Z,99915.53
2022-08-16T13:28:24.551Z,99921.16
2022-08-16T13:30:55.101Z,99913.09
2022-08-16T13:33:37.859Z,99910.03
2022-08-16T13:36:17.022Z,99906.75
2022-08-16T13:38:53.179Z,99909.88
2022-08-16T13:41:21.393Z,99908.69
2022-08-16T13:43:55.099Z,99905.34
2022-08-16T13:46:25.633Z,99901.72
2022-08-16T13:48:53.447Z,99905.16
2022-08-16T13:51:23.843Z,99899.31
2022-08-16T13:54:02.624Z,99891.66
2022-08-16T13:56:36.813Z,99895.09
2022-08-16T13:59:13.913Z,99902.13
2022-08-16T14:01:55.367Z,99894.13
2022-08-16T14:04:27.585Z,99892.25
2022-08-16T14:06:57.126Z,99894.94
2022-08-16T14:09:25.254Z,99889.44
2022-08-16T14:11:54.706Z,99892.44
2022-08-16T14:14:28.697Z,99893.94
2022-08-16T14:17:01.606Z,99892.88
2022-08-16T14:19:30.022Z,99890.94
2022-08-16T14:22:14.674Z,99888.47
2022-08-16T14:24:47.426Z,99885.84
2022-08-16T14:27:21.835Z,99878.09
2022-08-16T14:29:50.714Z,99884.13
2022-08-16T14:32:33.581Z,99879.34
2022-08-16T14:35:08.368Z,99879.66
2022-08-16T14:37:38.178Z,99882.31
2022-08-16T14:40:08.175Z,99881.56
2022-08-16T14:42:36.780Z,99879.63
2022-08-16T14:45:10.123Z,99875.84
2022-08-16T14:47:38.324Z,99874.25
2022-08-16T14:50:09.069Z,99873.53
2022-08-16T14:52:58.278Z,99866.25
2022-08-16T14:55:27.950Z,99870.25
2022-08-16T14:57:55.805Z,99871.06
2022-08-16T15:00:33.212Z,99874.38
2022-08-16T15:03:09.796Z,99872.75
2022-08-16T15:05:39.299Z,99874.69
2022-08-16T15:08:06.266Z,99872.00
2022-08-16T15:10:37.329Z,99870.72
2022-08-16T15:13:09.608Z,99868.50
2022-08-16T15:15:38.456Z,99868.25
2022-08-16T15:18:11.776Z,99870.34
2022-08-16T15:20:41.342Z,99869.03
2022-08-16T15:23:10.009Z,99866.56
2022-08-16T15:25:44.807Z,99865.91
2022-08-16T15:28:30.918Z,99864.38
2022-08-16T15:31:03.374Z,99863.88
2022-08-16T15:33:35.067Z,99869.53
2022-08-16T15:36:04.698Z,99867.94
2022-08-16T15:38:56.981Z,99864.44
2022-08-16T15:41:49.577Z,99868.97
2022-08-16T15:44:22.670Z,99870.63
2022-08-16T15:47:00.037Z,99867.84
2022-08-16T15:49:37.177Z,99874.81
2022-08-16T15:52:24.869Z,99863.47
2022-08-16T15:55:13.414Z,99870.75
2022-08-16T15:57:51.341Z,99868.88
2022-08-16T16:00:20.608Z,99865.59
2022-08-16T16:02:49.606Z,99860.69
2022-08-16T16:05:16.986Z,99864.09
2022-08-16T16:07:56.254Z,99860.91
2022-08-16T16:10:29.347Z,99847.94
2022-08-16T16:13:00.457Z,99855.00
2022-08-16T16:15:32.348Z,99860.94
2022-08-16T16:17:59.622Z,99864.03
2022-08-16T16:20:39.012Z,99859.56
2022-08-16T16:23:10.605Z,99861.09
2022-08-16T16:25:44.028Z,99859.47
2022-08-16T16:29:05.039Z,99854.59
2022-08-16T16:31:09.018Z,99857.22
2022-08-16T16:33:39.779Z,99859.41
2022-08-16T16:36:08.390Z,99851.56
2022-08-16T16:38:35.540Z,99858.59
2022-08-16T16:41:09.380Z,99850.72
2022-08-16T16:43:40.784Z,99851.31
2022-08-16T16:46:43.005Z,99846.44
2022-08-16T16:48:56.545Z,99851.78
2022-08-16T16:51:24.443Z,99850.72
2022-08-16T16:53:56.537Z,99847.28
2022-08-16T16:56:32.238Z,99847.25
2022-08-16T16:59:07.743Z,99844.31
2022-08-16T17:02:00.040Z,99844.56
2022-08-16T17:04:32.982Z,99840.47
2022-08-16T17:07:01.867Z,99837.22
2022-08-16T17:09:29.693Z,99846.59
2022-08-16T17:11:58.313Z,99840.66
2022-08-16T17:14:33.235Z,99841.47
2022-08-16T17:17:06.397Z,99836.06
2022-08-16T17:19:40.062Z,99840.03
2022-08-16T17:22:14.273Z,99852.34
2022-08-16T17:24:50.933Z,99853.72
2022-08-16T17:27:33.176Z,99855.34
2022-08-16T17:30:19.297Z,99848.91
2022-08-16T17:32:56.742Z,99851.81
2022-08-16T17:35:40.999Z,99854.75
2022-08-16T17:38:10.417Z,99848.56
2022-08-16T17:40:47.983Z,99850.84
2022-08-16T17:43:33.149Z,99853.81
2022-08-16T17:46:01.429Z,99848.00
2022-08-16T17:48:31.065Z,99846.16
2022-08-16T17:50:59.428Z,99845.88
2022-08-16T17:53:26.372Z,99840.66
2022-08-16T17:55:54.581Z,99852.88
2022-08-16T17:58:24.118Z,99853.53
2022-08-16T18:00:55.857Z,99857.47
2022-08-16T18:04:08.958Z,99845.03
2022-08-16T18:06:28.942Z,99852.63
2022-08-16T18:09:02.518Z,99843.38
2022-08-16T18:11:33.937Z,99846.81
2022-08-16T18:14:00.943Z,99849.97
2022-08-16T18:16:27.787Z,99849.41
2022-08-16T18:18:54.665Z,99842.06
2022-08-16T18:21:40.942Z,99841.50
2022-08-16T18:24:09.841Z,99850.75
2022-08-16T18:26:37.676Z,99850.13
2022-08-16T18:29:05.045Z,99847.09
2022-08-16T18:31:32.502Z,99846.78
2022-08-16T18:34:01.173Z,99850.19
2022-08-16T18:36:28.161Z,99843.94
2022-08-16T18:38:55.345Z,99843.03
2022-08-16T18:41:25.167Z,99849.38
2022-08-16T18:44:22.401Z,99843.13
2022-08-16T18:46:45.642Z,99840.34
2022-08-16T18:49:17.995Z,99843.97
2022-08-16T18:51:45.340Z,99847.38
2022-08-16T18:54:17.841Z,99850.78
2022-08-16T18:56:55.478Z,99847.28
2022-08-16T18:59:27.497Z,99852.06
2022-08-16T19:01:55.524Z,99856.06
2022-08-16T19:04:47.553Z,99858.16
2022-08-16T19:07:15.061Z,99864.88
2022-08-16T19:09:41.958Z,99865.72
2022-08-16T19:12:09.272Z,99865.53
2022-08-16T19:14:36.141Z,99867.31
2022-08-16T19:17:03.062Z,99863.38
2022-08-16T19:19:29.916Z,99861.41
2022-08-16T19:21:57.402Z,99863.97
2022-08-16T19:24:28.254Z,99869.91
2022-08-16T19:26:57.122Z,99867.00
2022-08-16T19:29:24.623Z,99872.13
2022-08-16T19:31:51.507Z,99875.97
2022-08-16T19:34:18.434Z,99873.53
2022-08-16T19:36:45.398Z,99878.66
2022-08-16T19:39:15.145Z,99882.88
2022-08-16T19:41:53.233Z,99897.53
2022-08-16T19:44:22.312Z,99896.16
2022-08-16T19:46:49.808Z,99892.19
2022-08-16T19:49:17.179Z,99893.72
2022-08-16T19:51:45.942Z,99894.28
2022-08-16T19:54:12.853Z,99898.50
2022-08-16T19:56:39.748Z,99905.50
2022-08-16T19:59:40.321Z,99893.06
2022-08-16T20:01:53.532Z,99902.56
2022-08-16T20:04:22.615Z,99895.81
2022-08-16T20:06:52.627Z,99900.84
2022-08-16T20:09:21.735Z,99916.78
2022-08-16T20:11:49.780Z,99910.50
2022-08-16T20:14:24.114Z,99918.19
2022-08-16T20:16:57.865Z,99912.97
2022-08-16T20:19:27.377Z,99923.09
2022-08-16T20:21:56.386Z,99928.66
2022-08-16T20:24:34.051Z,99926.66
2022-08-16T20:27:03.171Z,99931.56
2022-08-16T20:29:30.089Z,99939.09
2022-08-16T20:31:56.988Z,99937.34
2022-08-16T20:34:23.860Z,99939.63
2022-08-16T20:36:50.720Z,99945.59
2022-08-16T20:39:17.596Z,99942.00
2022-08-16T20:41:44.565Z,99941.75
2022-08-16T20:44:12.928Z,99942.59
2022-08-16T20:46:40.241Z,99945.41
2022-08-16T20:49:09.207Z,99942.34
2022-08-16T20:51:49.749Z,99939.31
2022-08-16T20:54:18.112Z,99946.88
2022-08-16T20:56:45.013Z,99941.06
2022-08-16T20:59:11.893Z,99944.69
2022-08-16T21:01:46.281Z,99946.19
2022-08-16T21:04:23.186Z,99943.03
2022-08-16T21:06:52.952Z,99943.63
2022-08-16T21:09:20.356Z,99941.13
2022-08-16T21:11:53.182Z,99945.09
2022-08-16T21:14:20.070Z,99941.25
2022-08-16T21:16:46.921Z,99937.16
2022-08-16T21:19:13.791Z,99935.41
2022-08-16T21:21:40.685Z,99935.41
2022-08-16T21:24:07.760Z,99939.34
2022-08-16T21:26:39.010Z,99947.38
2022-08-16T21:29:11.239Z,99939.78
2022-08-16T21:31:42.521Z,99947.81
2022-08-16T21:34:09.427Z,99939.44
2022-08-16T21:36:36.771Z,99935.16
2022-08-16T21:39:06.846Z,99948.63
2022-08-16T21:41:35.557Z,99946.09
2022-08-16T21:44:02.594Z,99937.09
2022-08-16T21:46:29.461Z,99947.59
2022-08-16T21:48:56.495Z,99947.69
2022-08-16T21:51:23.403Z,99950.84
2022-08-16T21:53:50.344Z,99951.75
2022-08-16T21:56:17.680Z,99960.72
2022-08-16T21:58:53.201Z,99957.00
2022-08-16T22:01:24.041Z,99959.53
2022-08-16T22:04:09.655Z,99954.03
2022-08-16T22:06:40.746Z,99952.84
2022-08-16T22:09:09.801Z,99952.59
2022-08-16T22:11:37.786Z,99951.25
2022-08-16T22:14:05.437Z,99947.16
2022-08-16T22:16:36.251Z,99949.72
2022-08-16T22:19:04.471Z,99954.66
2022-08-16T22:21:32.900Z,99955.91
2022-08-16T22:24:00.149Z,99963.47
2022-08-16T22:26:30.386Z,99955.59
2022-08-16T22:29:04.375Z,99957.69
2022-08-16T22:31:31.313Z,99955.25
2022-08-16T22:33:58.634Z,99953.59
2022-08-16T22:36:28.629Z,99947.88
2022-08-16T22:39:05.817Z,99942.38
2022-08-16T22:41:35.260Z,99949.00
2022-08-16T22:44:04.805Z,99955.31
2022-08-16T22:46:34.753Z,99950.91
2022-08-16T22:49:02.522Z,99952.59
2022-08-16T22:51:30.269Z,99947.78
2022-08-16T22:53:58.281Z,99961.81
2022-08-16T22:56:25.920Z,99957.44
2022-08-16T22:58:53.240Z,99963.66
2022-08-16T23:01:23.675Z,99959.59
2022-08-16T23:03:51.357Z,99966.13
2022-08-16T23:06:18.721Z,99967.16
2022-08-16T23:08:45.601Z,99966.28
2022-08-16T23:11:20.968Z,99965.50
2022-08-16T23:13:57.514Z,99959.34
2022-08-16T23:16:34.282Z,99966.03
2022-08-16T23:19:05.807Z,99959.88
2022-08-16T23:21:33.830Z,99958.69
2022-08-16T23:24:01.205Z,99952.94
2022-08-16T23:26:44.873Z,99951.53
2022-08-16T23:29:23.535Z,99950.56
2022-08-16T23:31:57.979Z,99945.00
2022-08-16T23:34:27.334Z,99940.19
2022-08-16T23:36:54.754Z,99939.34
2022-08-16T23:39:22.611Z,99938.56
2022-08-16T23:41:49.663Z,99943.56
2022-08-16T23:44:42.347Z,99937.47
2022-08-16T23:47:05.871Z,99944.63
2022-08-16T23:49:56.466Z,99936.16
2022-08-16T23:52:53.850Z,99935.78
2022-08-16T23:55:07.591Z,99931.75
2022-08-16T23:57:34.472Z,99928.06
